sensor_id;sensor_type;location;lat;lon;timestamp;temperature;humidity
67899;DHT22;54699;51.796;10.956;2023-08-06T00:00:57;23.70;55.50
67899;DHT22;54699;51.796;10.956;2023-08-06T00:03:24;23.70;55.70
67899;DHT22;54699;51.796;10.956;2023-08-06T00:05:51;23.70;55.50
67899;DHT22;54699;51.796;10.956;2023-08-06T00:08:19;23.70;55.60
67899;DHT22;54699;51.796;10.956;2023-08-06T00:10:47;23.70;55.70
67899;DHT22;54699;51.796;10.956;2023-08-06T00:13:14;23.70;55.70
67899;DHT22;54699;51.796;10.956;2023-08-06T00:15:41;23.70;55.70
67899;DHT22;54699;51.796;10.956;2023-08-06T00:18:08;23.70;55.60
67899;DHT22;54699;51.796;10.956;2023-08-06T00:20:35;23.70;55.70
67899;DHT22;54699;51.796;10.956;2023-08-06T00:23:05;23.70;55.80
67899;DHT22;54699;51.796;10.956;2023-08-06T00:25:33;23.70;55.70
67899;DHT22;54699;51.796;10.956;2023-08-06T00:28:01;23.70;55.80
67899;DHT22;54699;51.796;10.956;2023-08-06T00:30:27;23.70;55.70
67899;DHT22;54699;51.796;10.956;2023-08-06T00:32:54;23.70;55.80
67899;DHT22;54699;51.796;10.956;2023-08-06T00:35:21;23.70;55.90
67899;DHT22;54699;51.796;10.956;2023-08-06T00:37:48;23.70;55.80
67899;DHT22;54699;51.796;10.956;2023-08-06T00:40:15;23.70;55.90
67899;DHT22;54699;51.796;10.956;2023-08-06T00:42:44;23.70;56.00
67899;DHT22;54699;51.796;10.956;2023-08-06T00:45:11;23.70;55.90
67899;DHT22;54699;51.796;10.956;2023-08-06T00:47:38;23.60;55.90
67899;DHT22;54699;51.796;10.956;2023-08-06T00:50:06;23.70;55.80
67899;DHT22;54699;51.796;10.956;2023-08-06T00:52:34;23.60;56.10
67899;DHT22;54699;51.796;10.956;2023-08-06T00:55:03;23.60;56.10
67899;DHT22;54699;51.796;10.956;2023-08-06T00:57:31;23.60;56.10
67899;DHT22;54699;51.796;10.956;2023-08-06T00:59:59;23.60;56.10
67899;DHT22;54699;51.796;10.956;2023-08-06T01:02:26;23.60;56.20
67899;DHT22;54699;51.796;10.956;2023-08-06T01:04:53;23.60;56.10
67899;DHT22;54699;51.796;10.956;2023-08-06T01:07:29;23.60;56.10
67899;DHT22;54699;51.796;10.956;2023-08-06T01:10:11;23.60;56.30
67899;DHT22;54699;51.796;10.956;2023-08-06T01:12:51;23.60;56.20
67899;DHT22;54699;51.796;10.956;2023-08-06T01:15:31;23.60;56.10
67899;DHT22;54699;51.796;10.956;2023-08-06T01:18:01;23.60;56.20
67899;DHT22;54699;51.796;10.956;2023-08-06T01:20:30;23.60;56.10
67899;DHT22;54699;51.796;10.956;2023-08-06T01:23:00;23.60;56.20
67899;DHT22;54699;51.796;10.956;2023-08-06T01:25:29;23.60;56.20
67899;DHT22;54699;51.796;10.956;2023-08-06T01:27:59;23.50;56.20
67899;DHT22;54699;51.796;10.956;2023-08-06T01:30:33;23.60;56.10
67899;DHT22;54699;51.796;10.956;2023-08-06T01:33:06;23.50;56.00
67899;DHT22;54699;51.796;10.956;2023-08-06T01:35:40;23.50;56.00
67899;DHT22;54699;51.796;10.956;2023-08-06T01:38:08;23.60;56.90
67899;DHT22;54699;51.796;10.956;2023-08-06T01:40:35;23.50;56.00
67899;DHT22;54699;51.796;10.956;2023-08-06T01:43:02;23.60;56.10
67899;DHT22;54699;51.796;10.956;2023-08-06T01:45:31;23.50;56.10
67899;DHT22;54699;51.796;10.956;2023-08-06T01:47:58;23.50;56.00
67899;DHT22;54699;51.796;10.956;2023-08-06T01:50:25;23.50;55.90
67899;DHT22;54699;51.796;10.956;2023-08-06T01:52:54;23.50;56.00
67899;DHT22;54699;51.796;10.956;2023-08-06T01:55:21;23.50;56.00
67899;DHT22;54699;51.796;10.956;2023-08-06T01:57:48;23.50;56.00
67899;DHT22;54699;51.796;10.956;2023-08-06T02:00:15;23.50;56.00
67899;DHT22;54699;51.796;10.956;2023-08-06T02:02:42;23.50;56.00
67899;DHT22;54699;51.796;10.956;2023-08-06T02:05:09;23.50;56.00
67899;DHT22;54699;51.796;10.956;2023-08-06T02:07:35;23.50;55.90
67899;DHT22;54699;51.796;10.956;2023-08-06T02:10:04;23.50;55.80
67899;DHT22;54699;51.796;10.956;2023-08-06T02:12:31;23.50;56.80
67899;DHT22;54699;51.796;10.956;2023-08-06T02:14:58;23.50;55.80
67899;DHT22;54699;51.796;10.956;2023-08-06T02:17:25;23.50;56.00
67899;DHT22;54699;51.796;10.956;2023-08-06T02:19:52;23.50;55.90
67899;DHT22;54699;51.796;10.956;2023-08-06T02:22:19;23.50;55.80
67899;DHT22;54699;51.796;10.956;2023-08-06T02:24:46;23.50;55.90
67899;DHT22;54699;51.796;10.956;2023-08-06T02:27:14;23.50;55.80
67899;DHT22;54699;51.796;10.956;2023-08-06T02:29:41;23.50;55.80
67899;DHT22;54699;51.796;10.956;2023-08-06T02:32:07;23.50;55.70
67899;DHT22;54699;51.796;10.956;2023-08-06T02:34:34;23.50;55.80
67899;DHT22;54699;51.796;10.956;2023-08-06T02:37:01;23.50;55.80
67899;DHT22;54699;51.796;10.956;2023-08-06T02:39:28;23.40;55.70
67899;DHT22;54699;51.796;10.956;2023-08-06T02:41:55;23.50;55.70
67899;DHT22;54699;51.796;10.956;2023-08-06T02:44:23;23.50;55.80
67899;DHT22;54699;51.796;10.956;2023-08-06T02:46:53;23.50;55.70
67899;DHT22;54699;51.796;10.956;2023-08-06T02:49:20;23.50;55.80
67899;DHT22;54699;51.796;10.956;2023-08-06T02:51:47;23.50;55.70
67899;DHT22;54699;51.796;10.956;2023-08-06T02:54:14;23.50;55.70
67899;DHT22;54699;51.796;10.956;2023-08-06T02:56:42;23.50;55.60
67899;DHT22;54699;51.796;10.956;2023-08-06T02:59:10;23.50;55.70
67899;DHT22;54699;51.796;10.956;2023-08-06T03:01:38;23.50;55.70
67899;DHT22;54699;51.796;10.956;2023-08-06T03:04:05;23.50;55.70
67899;DHT22;54699;51.796;10.956;2023-08-06T03:06:32;23.40;55.50
67899;DHT22;54699;51.796;10.956;2023-08-06T03:08:59;23.50;55.60
67899;DHT22;54699;51.796;10.956;2023-08-06T03:11:26;23.40;55.50
67899;DHT22;54699;51.796;10.956;2023-08-06T03:13:53;23.40;55.50
67899;DHT22;54699;51.796;10.956;2023-08-06T03:16:20;23.40;55.40
67899;DHT22;54699;51.796;10.956;2023-08-06T03:18:48;23.50;55.50
67899;DHT22;54699;51.796;10.956;2023-08-06T03:21:15;23.40;55.50
67899;DHT22;54699;51.796;10.956;2023-08-06T03:23:41;23.50;55.40
67899;DHT22;54699;51.796;10.956;2023-08-06T03:26:08;23.40;55.50
67899;DHT22;54699;51.796;10.956;2023-08-06T03:28:35;23.40;55.60
67899;DHT22;54699;51.796;10.956;2023-08-06T03:31:02;23.40;55.50
67899;DHT22;54699;51.796;10.956;2023-08-06T03:33:29;23.40;55.50
67899;DHT22;54699;51.796;10.956;2023-08-06T03:35:58;23.40;55.30
67899;DHT22;54699;51.796;10.956;2023-08-06T03:38:25;23.40;55.30
67899;DHT22;54699;51.796;10.956;2023-08-06T03:40:52;23.40;55.40
67899;DHT22;54699;51.796;10.956;2023-08-06T03:43:19;23.40;55.40
67899;DHT22;54699;51.796;10.956;2023-08-06T03:45:46;23.40;55.40
67899;DHT22;54699;51.796;10.956;2023-08-06T03:48:13;23.50;55.50
67899;DHT22;54699;51.796;10.956;2023-08-06T03:50:40;23.40;55.40
67899;DHT22;54699;51.796;10.956;2023-08-06T03:53:08;23.40;55.50
67899;DHT22;54699;51.796;10.956;2023-08-06T03:55:35;23.40;55.50
67899;DHT22;54699;51.796;10.956;2023-08-06T03:58:02;23.40;55.30
67899;DHT22;54699;51.796;10.956;2023-08-06T04:00:28;23.40;55.30
67899;DHT22;54699;51.796;10.956;2023-08-06T04:02:55;23.40;56.20
67899;DHT22;54699;51.796;10.956;2023-08-06T04:05:22;23.40;55.40
67899;DHT22;54699;51.796;10.956;2023-08-06T04:07:49;23.40;55.50
67899;DHT22;54699;51.796;10.956;2023-08-06T04:10:17;23.40;55.40
67899;DHT22;54699;51.796;10.956;2023-08-06T04:12:44;23.40;55.50
67899;DHT22;54699;51.796;10.956;2023-08-06T04:15:11;23.40;55.50
67899;DHT22;54699;51.796;10.956;2023-08-06T04:17:38;23.40;55.30
67899;DHT22;54699;51.796;10.956;2023-08-06T04:20:05;23.40;55.20
67899;DHT22;54699;51.796;10.956;2023-08-06T04:22:34;23.40;55.40
67899;DHT22;54699;51.796;10.956;2023-08-06T04:25:01;23.30;55.30
67899;DHT22;54699;51.796;10.956;2023-08-06T04:27:29;23.40;55.40
67899;DHT22;54699;51.796;10.956;2023-08-06T04:29:56;23.40;55.50
67899;DHT22;54699;51.796;10.956;2023-08-06T04:32:23;23.40;55.50
67899;DHT22;54699;51.796;10.956;2023-08-06T04:34:51;23.40;55.40
67899;DHT22;54699;51.796;10.956;2023-08-06T04:37:18;23.30;55.40
67899;DHT22;54699;51.796;10.956;2023-08-06T04:39:45;23.40;55.20
67899;DHT22;54699;51.796;10.956;2023-08-06T04:42:12;23.40;55.40
67899;DHT22;54699;51.796;10.956;2023-08-06T04:44:40;23.40;55.50
67899;DHT22;54699;51.796;10.956;2023-08-06T04:47:07;23.40;55.50
67899;DHT22;54699;51.796;10.956;2023-08-06T04:49:35;23.30;55.20
67899;DHT22;54699;51.796;10.956;2023-08-06T04:52:02;23.40;55.30
67899;DHT22;54699;51.796;10.956;2023-08-06T04:54:29;23.40;55.30
67899;DHT22;54699;51.796;10.956;2023-08-06T04:56:56;23.40;55.40
67899;DHT22;54699;51.796;10.956;2023-08-06T04:59:23;23.30;55.40
67899;DHT22;54699;51.796;10.956;2023-08-06T05:01:51;23.30;55.40
67899;DHT22;54699;51.796;10.956;2023-08-06T05:04:18;23.40;55.30
67899;DHT22;54699;51.796;10.956;2023-08-06T05:06:45;23.30;55.30
67899;DHT22;54699;51.796;10.956;2023-08-06T05:09:12;23.40;55.40
67899;DHT22;54699;51.796;10.956;2023-08-06T05:11:40;23.40;55.30
67899;DHT22;54699;51.796;10.956;2023-08-06T05:14:07;23.30;55.40
67899;DHT22;54699;51.796;10.956;2023-08-06T05:16:34;23.30;55.20
67899;DHT22;54699;51.796;10.956;2023-08-06T05:19:02;23.40;55.30
67899;DHT22;54699;51.796;10.956;2023-08-06T05:21:29;23.30;55.30
67899;DHT22;54699;51.796;10.956;2023-08-06T05:23:56;23.30;55.40
67899;DHT22;54699;51.796;10.956;2023-08-06T05:26:23;23.40;55.20
67899;DHT22;54699;51.796;10.956;2023-08-06T05:28:50;23.40;55.40
67899;DHT22;54699;51.796;10.956;2023-08-06T05:31:16;23.30;55.50
67899;DHT22;54699;51.796;10.956;2023-08-06T05:33:43;23.30;55.50
67899;DHT22;54699;51.796;10.956;2023-08-06T05:36:12;23.30;55.40
67899;DHT22;54699;51.796;10.956;2023-08-06T05:38:39;23.40;55.40
67899;DHT22;54699;51.796;10.956;2023-08-06T05:41:05;23.40;55.40
67899;DHT22;54699;51.796;10.956;2023-08-06T05:43:32;23.40;55.50
67899;DHT22;54699;51.796;10.956;2023-08-06T05:45:59;23.40;55.40
67899;DHT22;54699;51.796;10.956;2023-08-06T05:48:26;23.40;55.50
67899;DHT22;54699;51.796;10.956;2023-08-06T05:50:53;23.40;55.40
67899;DHT22;54699;51.796;10.956;2023-08-06T05:53:21;23.30;55.70
67899;DHT22;54699;51.796;10.956;2023-08-06T05:55:48;23.30;55.50
67899;DHT22;54699;51.796;10.956;2023-08-06T05:58:15;23.40;55.60
67899;DHT22;54699;51.796;10.956;2023-08-06T06:00:42;23.30;55.70
67899;DHT22;54699;51.796;10.956;2023-08-06T06:03:09;23.40;55.60
67899;DHT22;54699;51.796;10.956;2023-08-06T06:05:37;23.30;55.50
67899;DHT22;54699;51.796;10.956;2023-08-06T06:08:05;23.40;55.70
67899;DHT22;54699;51.796;10.956;2023-08-06T06:10:33;23.40;55.70
67899;DHT22;54699;51.796;10.956;2023-08-06T06:13:00;23.30;55.60
67899;DHT22;54699;51.796;10.956;2023-08-06T06:15:27;23.40;55.80
67899;DHT22;54699;51.796;10.956;2023-08-06T06:17:54;23.40;55.80
67899;DHT22;54699;51.796;10.956;2023-08-06T06:20:20;23.30;55.90
67899;DHT22;54699;51.796;10.956;2023-08-06T06:22:47;23.30;55.70
67899;DHT22;54699;51.796;10.956;2023-08-06T06:25:14;23.30;55.70
67899;DHT22;54699;51.796;10.956;2023-08-06T06:27:42;23.40;55.90
67899;DHT22;54699;51.796;10.956;2023-08-06T06:30:10;23.40;56.00
67899;DHT22;54699;51.796;10.956;2023-08-06T06:32:38;23.30;56.00
67899;DHT22;54699;51.796;10.956;2023-08-06T06:35:05;23.30;55.90
67899;DHT22;54699;51.796;10.956;2023-08-06T06:37:32;23.30;56.00
67899;DHT22;54699;51.796;10.956;2023-08-06T06:39:59;23.40;56.10
67899;DHT22;54699;51.796;10.956;2023-08-06T06:42:26;23.30;56.00
67899;DHT22;54699;51.796;10.956;2023-08-06T06:44:54;23.30;55.90
67899;DHT22;54699;51.796;10.956;2023-08-06T06:47:21;23.30;56.20
67899;DHT22;54699;51.796;10.956;2023-08-06T06:49:48;23.40;56.10
67899;DHT22;54699;51.796;10.956;2023-08-06T06:52:15;23.40;56.10
67899;DHT22;54699;51.796;10.956;2023-08-06T06:54:42;23.30;55.70
67899;DHT22;54699;51.796;10.956;2023-08-06T06:57:09;23.30;55.60
67899;DHT22;54699;51.796;10.956;2023-08-06T06:59:36;23.40;55.90
67899;DHT22;54699;51.796;10.956;2023-08-06T07:02:05;23.40;55.80
67899;DHT22;54699;51.796;10.956;2023-08-06T07:04:32;23.30;55.60
67899;DHT22;54699;51.796;10.956;2023-08-06T07:06:59;23.40;55.30
67899;DHT22;54699;51.796;10.956;2023-08-06T07:09:26;23.40;55.50
67899;DHT22;54699;51.796;10.956;2023-08-06T07:11:53;23.30;55.90
67899;DHT22;54699;51.796;10.956;2023-08-06T07:14:20;23.30;55.70
67899;DHT22;54699;51.796;10.956;2023-08-06T07:16:47;23.30;55.90
67899;DHT22;54699;51.796;10.956;2023-08-06T07:19:15;23.40;56.00
67899;DHT22;54699;51.796;10.956;2023-08-06T07:21:42;23.40;55.80
67899;DHT22;54699;51.796;10.956;2023-08-06T07:24:09;23.40;55.70
67899;DHT22;54699;51.796;10.956;2023-08-06T07:26:37;23.40;55.40
67899;DHT22;54699;51.796;10.956;2023-08-06T07:29:04;23.40;55.70
67899;DHT22;54699;51.796;10.956;2023-08-06T07:31:30;23.40;55.70
67899;DHT22;54699;51.796;10.956;2023-08-06T07:33:57;23.40;55.50
67899;DHT22;54699;51.796;10.956;2023-08-06T07:36:26;23.40;55.50
67899;DHT22;54699;51.796;10.956;2023-08-06T07:38:53;23.40;55.60
67899;DHT22;54699;51.796;10.956;2023-08-06T07:41:22;23.40;56.10
67899;DHT22;54699;51.796;10.956;2023-08-06T07:43:49;23.40;56.00
67899;DHT22;54699;51.796;10.956;2023-08-06T07:46:16;23.40;56.00
67899;DHT22;54699;51.796;10.956;2023-08-06T07:48:42;23.40;56.20
67899;DHT22;54699;51.796;10.956;2023-08-06T07:51:09;23.40;56.50
67899;DHT22;54699;51.796;10.956;2023-08-06T07:53:37;23.40;56.80
67899;DHT22;54699;51.796;10.956;2023-08-06T07:56:04;23.50;55.90
67899;DHT22;54699;51.796;10.956;2023-08-06T07:58:31;23.50;56.10
67899;DHT22;54699;51.796;10.956;2023-08-06T08:00:58;23.50;55.40
67899;DHT22;54699;51.796;10.956;2023-08-06T08:03:25;23.50;55.00
67899;DHT22;54699;51.796;10.956;2023-08-06T08:05:53;23.50;54.60
67899;DHT22;54699;51.796;10.956;2023-08-06T08:08:22;23.50;54.10
67899;DHT22;54699;51.796;10.956;2023-08-06T08:10:50;23.50;54.00
67899;DHT22;54699;51.796;10.956;2023-08-06T08:13:17;23.50;53.80
67899;DHT22;54699;51.796;10.956;2023-08-06T08:15:44;23.50;53.80
67899;DHT22;54699;51.796;10.956;2023-08-06T08:18:11;23.50;53.70
67899;DHT22;54699;51.796;10.956;2023-08-06T08:20:38;23.60;53.80
67899;DHT22;54699;51.796;10.956;2023-08-06T08:23:04;23.50;53.80
67899;DHT22;54699;51.796;10.956;2023-08-06T08:25:31;23.60;53.90
67899;DHT22;54699;51.796;10.956;2023-08-06T08:28:00;23.50;54.00
67899;DHT22;54699;51.796;10.956;2023-08-06T08:30:27;23.50;54.20
67899;DHT22;54699;51.796;10.956;2023-08-06T08:32:54;23.50;54.30
67899;DHT22;54699;51.796;10.956;2023-08-06T08:35:21;23.60;54.40
67899;DHT22;54699;51.796;10.956;2023-08-06T08:37:48;23.60;54.40
67899;DHT22;54699;51.796;10.956;2023-08-06T08:40:15;23.60;54.40
67899;DHT22;54699;51.796;10.956;2023-08-06T08:42:42;23.60;54.40
67899;DHT22;54699;51.796;10.956;2023-08-06T08:45:12;23.60;54.30
67899;DHT22;54699;51.796;10.956;2023-08-06T08:47:40;23.60;54.20
67899;DHT22;54699;51.796;10.956;2023-08-06T08:50:08;23.60;54.20
67899;DHT22;54699;51.796;10.956;2023-08-06T08:52:36;23.60;54.10
67899;DHT22;54699;51.796;10.956;2023-08-06T08:55:05;23.60;54.00
67899;DHT22;54699;51.796;10.956;2023-08-06T08:57:36;23.60;54.00
67899;DHT22;54699;51.796;10.956;2023-08-06T09:00:03;23.60;53.90
67899;DHT22;54699;51.796;10.956;2023-08-06T09:02:32;23.70;53.80
67899;DHT22;54699;51.796;10.956;2023-08-06T09:05:00;23.60;53.60
67899;DHT22;54699;51.796;10.956;2023-08-06T09:07:29;23.60;53.40
67899;DHT22;54699;51.796;10.956;2023-08-06T09:10:01;23.60;53.40
67899;DHT22;54699;51.796;10.956;2023-08-06T09:12:30;23.70;53.30
67899;DHT22;54699;51.796;10.956;2023-08-06T09:14:57;23.70;52.90
67899;DHT22;54699;51.796;10.956;2023-08-06T09:17:24;23.70;52.80
67899;DHT22;54699;51.796;10.956;2023-08-06T09:19:54;23.70;53.90
67899;DHT22;54699;51.796;10.956;2023-08-06T09:22:21;23.70;53.10
67899;DHT22;54699;51.796;10.956;2023-08-06T09:24:49;23.70;52.90
67899;DHT22;54699;51.796;10.956;2023-08-06T09:27:16;23.70;53.00
67899;DHT22;54699;51.796;10.956;2023-08-06T09:29:44;23.70;53.00
67899;DHT22;54699;51.796;10.956;2023-08-06T09:32:11;23.70;52.80
67899;DHT22;54699;51.796;10.956;2023-08-06T09:34:39;23.70;53.00
67899;DHT22;54699;51.796;10.956;2023-08-06T09:37:10;23.70;53.10
67899;DHT22;54699;51.796;10.956;2023-08-06T09:39:38;23.70;53.10
67899;DHT22;54699;51.796;10.956;2023-08-06T09:42:05;23.70;53.30
67899;DHT22;54699;51.796;10.956;2023-08-06T09:44:32;23.80;53.50
67899;DHT22;54699;51.796;10.956;2023-08-06T09:47:00;23.70;53.60
67899;DHT22;54699;51.796;10.956;2023-08-06T09:49:39;23.80;53.80
67899;DHT22;54699;51.796;10.956;2023-08-06T09:52:08;23.80;53.80
67899;DHT22;54699;51.796;10.956;2023-08-06T09:54:41;23.80;54.20
67899;DHT22;54699;51.796;10.956;2023-08-06T09:57:10;23.80;56.20
67899;DHT22;54699;51.796;10.956;2023-08-06T09:59:38;23.80;55.10
67899;DHT22;54699;51.796;10.956;2023-08-06T10:02:07;23.80;55.10
67899;DHT22;54699;51.796;10.956;2023-08-06T10:04:39;23.80;54.10
67899;DHT22;54699;51.796;10.956;2023-08-06T10:07:06;23.80;53.70
67899;DHT22;54699;51.796;10.956;2023-08-06T10:09:35;23.80;53.60
67899;DHT22;54699;51.796;10.956;2023-08-06T10:12:02;23.80;53.50
67899;DHT22;54699;51.796;10.956;2023-08-06T10:14:30;23.80;53.30
67899;DHT22;54699;51.796;10.956;2023-08-06T10:16:59;23.80;53.20
67899;DHT22;54699;51.796;10.956;2023-08-06T10:19:27;23.80;53.10
67899;DHT22;54699;51.796;10.956;2023-08-06T10:22:10;23.80;53.10
67899;DHT22;54699;51.796;10.956;2023-08-06T10:24:46;23.80;52.90
67899;DHT22;54699;51.796;10.956;2023-08-06T10:27:19;23.80;52.70
67899;DHT22;54699;51.796;10.956;2023-08-06T10:29:47;23.80;52.60
67899;DHT22;54699;51.796;10.956;2023-08-06T10:32:15;23.80;52.50
67899;DHT22;54699;51.796;10.956;2023-08-06T10:34:54;23.80;52.50
67899;DHT22;54699;51.796;10.956;2023-08-06T10:37:23;23.80;52.50
67899;DHT22;54699;51.796;10.956;2023-08-06T10:39:51;23.80;52.50
67899;DHT22;54699;51.796;10.956;2023-08-06T10:42:20;23.90;52.50
67899;DHT22;54699;51.796;10.956;2023-08-06T10:47:40;23.80;52.30
67899;DHT22;54699;51.796;10.956;2023-08-06T10:50:10;23.80;52.30
67899;DHT22;54699;51.796;10.956;2023-08-06T10:52:38;23.80;52.30
67899;DHT22;54699;51.796;10.956;2023-08-06T10:55:07;23.80;52.20
67899;DHT22;54699;51.796;10.956;2023-08-06T10:57:35;23.90;52.20
67899;DHT22;54699;51.796;10.956;2023-08-06T11:00:04;23.80;52.00
67899;DHT22;54699;51.796;10.956;2023-08-06T11:02:33;23.80;52.00
67899;DHT22;54699;51.796;10.956;2023-08-06T11:05:04;23.80;51.90
67899;DHT22;54699;51.796;10.956;2023-08-06T11:07:32;23.90;51.70
67899;DHT22;54699;51.796;10.956;2023-08-06T11:10:03;23.80;51.80
67899;DHT22;54699;51.796;10.956;2023-08-06T11:12:32;23.90;51.80
67899;DHT22;54699;51.796;10.956;2023-08-06T11:14:59;23.80;51.50
67899;DHT22;54699;51.796;10.956;2023-08-06T11:17:28;23.80;51.30
67899;DHT22;54699;51.796;10.956;2023-08-06T11:19:56;23.90;51.40
67899;DHT22;54699;51.796;10.956;2023-08-06T11:22:25;23.80;51.30
67899;DHT22;54699;51.796;10.956;2023-08-06T11:24:52;23.90;51.40
67899;DHT22;54699;51.796;10.956;2023-08-06T11:27:20;23.90;51.80
67899;DHT22;54699;51.796;10.956;2023-08-06T11:29:48;23.90;51.70
67899;DHT22;54699;51.796;10.956;2023-08-06T11:32:15;23.90;51.90
67899;DHT22;54699;51.796;10.956;2023-08-06T11:34:42;23.90;52.10
67899;DHT22;54699;51.796;10.956;2023-08-06T11:37:10;23.90;52.10
67899;DHT22;54699;51.796;10.956;2023-08-06T11:39:37;23.90;52.10
67899;DHT22;54699;51.796;10.956;2023-08-06T11:42:05;23.90;52.20
67899;DHT22;54699;51.796;10.956;2023-08-06T11:44:33;23.90;52.30
67899;DHT22;54699;51.796;10.956;2023-08-06T11:47:04;23.90;52.50
67899;DHT22;54699;51.796;10.956;2023-08-06T11:49:38;23.90;52.60
67899;DHT22;54699;51.796;10.956;2023-08-06T11:52:11;23.90;53.00
67899;DHT22;54699;51.796;10.956;2023-08-06T11:54:40;23.90;53.10
67899;DHT22;54699;51.796;10.956;2023-08-06T11:57:07;23.90;53.10
67899;DHT22;54699;51.796;10.956;2023-08-06T11:59:35;23.90;54.00
67899;DHT22;54699;51.796;10.956;2023-08-06T12:02:05;23.90;54.60
67899;DHT22;54699;51.796;10.956;2023-08-06T12:07:31;24.00;55.90
67899;DHT22;54699;51.796;10.956;2023-08-06T12:09:58;24.00;56.00
67899;DHT22;54699;51.796;10.956;2023-08-06T12:12:25;24.00;55.80
67899;DHT22;54699;51.796;10.956;2023-08-06T12:14:52;24.00;56.70
67899;DHT22;54699;51.796;10.956;2023-08-06T12:17:22;24.10;56.60
67899;DHT22;54699;51.796;10.956;2023-08-06T12:19:48;24.10;56.30
67899;DHT22;54699;51.796;10.956;2023-08-06T12:22:15;24.10;57.20
67899;DHT22;54699;51.796;10.956;2023-08-06T12:24:44;24.10;57.60
67899;DHT22;54699;51.796;10.956;2023-08-06T12:27:12;24.10;57.80
67899;DHT22;54699;51.796;10.956;2023-08-06T12:29:40;24.10;57.70
67899;DHT22;54699;51.796;10.956;2023-08-06T12:32:08;24.20;58.30
67899;DHT22;54699;51.796;10.956;2023-08-06T12:34:37;24.20;57.80
67899;DHT22;54699;51.796;10.956;2023-08-06T12:37:04;24.20;57.80
67899;DHT22;54699;51.796;10.956;2023-08-06T12:39:32;24.20;58.70
67899;DHT22;54699;51.796;10.956;2023-08-06T12:41:59;24.30;57.70
67899;DHT22;54699;51.796;10.956;2023-08-06T12:44:26;24.30;57.60
67899;DHT22;54699;51.796;10.956;2023-08-06T12:46:53;24.30;57.60
67899;DHT22;54699;51.796;10.956;2023-08-06T12:49:20;24.30;57.20
67899;DHT22;54699;51.796;10.956;2023-08-06T12:51:49;24.30;57.40
67899;DHT22;54699;51.796;10.956;2023-08-06T12:54:17;24.30;57.10
67899;DHT22;54699;51.796;10.956;2023-08-06T12:56:44;24.40;56.40
67899;DHT22;54699;51.796;10.956;2023-08-06T12:59:11;24.40;56.90
67899;DHT22;54699;51.796;10.956;2023-08-06T13:01:38;24.40;57.60
67899;DHT22;54699;51.796;10.956;2023-08-06T13:04:05;24.40;57.00
67899;DHT22;54699;51.796;10.956;2023-08-06T13:06:32;24.40;56.70
67899;DHT22;54699;51.796;10.956;2023-08-06T13:09:02;24.40;56.40
67899;DHT22;54699;51.796;10.956;2023-08-06T13:11:29;24.40;56.90
67899;DHT22;54699;51.796;10.956;2023-08-06T13:13:59;24.40;56.60
67899;DHT22;54699;51.796;10.956;2023-08-06T13:16:30;24.40;55.50
67899;DHT22;54699;51.796;10.956;2023-08-06T13:18:57;24.40;55.80
67899;DHT22;54699;51.796;10.956;2023-08-06T13:21:24;24.40;56.20
67899;DHT22;54699;51.796;10.956;2023-08-06T13:23:51;24.40;56.60
67899;DHT22;54699;51.796;10.956;2023-08-06T13:26:19;24.40;57.30
67899;DHT22;54699;51.796;10.956;2023-08-06T13:28:46;24.40;56.70
67899;DHT22;54699;51.796;10.956;2023-08-06T13:31:13;24.40;56.50
67899;DHT22;54699;51.796;10.956;2023-08-06T13:33:40;24.40;56.60
67899;DHT22;54699;51.796;10.956;2023-08-06T13:36:06;24.40;56.70
67899;DHT22;54699;51.796;10.956;2023-08-06T13:38:33;24.40;57.20
67899;DHT22;54699;51.796;10.956;2023-08-06T13:41:01;24.40;57.50
67899;DHT22;54699;51.796;10.956;2023-08-06T13:43:29;24.40;57.40
67899;DHT22;54699;51.796;10.956;2023-08-06T13:45:56;24.40;57.00
67899;DHT22;54699;51.796;10.956;2023-08-06T13:48:23;24.40;56.70
67899;DHT22;54699;51.796;10.956;2023-08-06T13:50:50;24.40;56.60
67899;DHT22;54699;51.796;10.956;2023-08-06T13:53:17;24.40;57.00
67899;DHT22;54699;51.796;10.956;2023-08-06T13:55:44;24.40;57.30
67899;DHT22;54699;51.796;10.956;2023-08-06T13:58:11;24.40;57.30
67899;DHT22;54699;51.796;10.956;2023-08-06T14:00:39;24.40;57.40
67899;DHT22;54699;51.796;10.956;2023-08-06T14:03:06;24.40;56.90
67899;DHT22;54699;51.796;10.956;2023-08-06T14:05:33;24.40;56.90
67899;DHT22;54699;51.796;10.956;2023-08-06T14:08:00;24.40;56.60
67899;DHT22;54699;51.796;10.956;2023-08-06T14:10:27;24.40;56.50
67899;DHT22;54699;51.796;10.956;2023-08-06T14:12:54;24.40;56.30
67899;DHT22;54699;51.796;10.956;2023-08-06T14:15:21;24.40;56.20
67899;DHT22;54699;51.796;10.956;2023-08-06T14:17:49;24.40;56.50
67899;DHT22;54699;51.796;10.956;2023-08-06T14:20:16;24.40;56.40
67899;DHT22;54699;51.796;10.956;2023-08-06T14:22:43;24.40;57.10
67899;DHT22;54699;51.796;10.956;2023-08-06T14:25:09;24.40;56.80
67899;DHT22;54699;51.796;10.956;2023-08-06T14:27:36;24.40;56.30
67899;DHT22;54699;51.796;10.956;2023-08-06T14:30:05;24.40;56.50
67899;DHT22;54699;51.796;10.956;2023-08-06T14:32:32;24.40;56.50
67899;DHT22;54699;51.796;10.956;2023-08-06T14:35:01;24.40;56.20
67899;DHT22;54699;51.796;10.956;2023-08-06T14:37:28;24.40;56.30
67899;DHT22;54699;51.796;10.956;2023-08-06T14:39:55;24.40;55.90
67899;DHT22;54699;51.796;10.956;2023-08-06T14:42:21;24.40;56.00
67899;DHT22;54699;51.796;10.956;2023-08-06T14:44:48;24.30;56.10
67899;DHT22;54699;51.796;10.956;2023-08-06T14:47:15;24.30;56.10
67899;DHT22;54699;51.796;10.956;2023-08-06T14:49:42;24.40;56.00
67899;DHT22;54699;51.796;10.956;2023-08-06T14:52:11;24.40;56.40
67899;DHT22;54699;51.796;10.956;2023-08-06T14:54:38;24.40;57.40
67899;DHT22;54699;51.796;10.956;2023-08-06T14:57:05;24.40;57.50
67899;DHT22;54699;51.796;10.956;2023-08-06T14:59:33;24.40;57.50
67899;DHT22;54699;51.796;10.956;2023-08-06T15:02:00;24.40;57.40
67899;DHT22;54699;51.796;10.956;2023-08-06T15:04:27;24.40;57.10
67899;DHT22;54699;51.796;10.956;2023-08-06T15:06:54;24.40;57.10
67899;DHT22;54699;51.796;10.956;2023-08-06T15:09:23;24.40;57.20
67899;DHT22;54699;51.796;10.956;2023-08-06T15:11:49;24.40;57.30
67899;DHT22;54699;51.796;10.956;2023-08-06T15:14:16;24.40;57.10
67899;DHT22;54699;51.796;10.956;2023-08-06T15:16:45;24.40;56.80
67899;DHT22;54699;51.796;10.956;2023-08-06T15:19:13;24.40;56.60
67899;DHT22;54699;51.796;10.956;2023-08-06T15:21:39;24.40;56.60
67899;DHT22;54699;51.796;10.956;2023-08-06T15:24:08;24.40;56.20